Hujirt, Mongolia
Current Conditions -  °F | °C
As of 3:00 AM on Friday 31 Oct 2014 (Local Time) from ZMUB Reporting Station
Scattered Clouds Scattered Clouds  
Wind Chill: 21°   Ceiling: Unl
Heat Index: 30°   Visibility: 6mi
Dew Point: 23°   Wind: 11mph
Humidity: 75%   Direction: 160°SSE
Pressure: 30.03"   Gusts: NA
Location:  46.9°N, 102.77°E
Report Text: ZMUB 301900Z 16005MPS 9999 SCT100 M01/M05 Q1017 NOSIG RMK QFE655.5 71 NT
Loading
Personal Weather Stations






























Interactive Weather Map
Tropical Storm Tracking
New forecast layout! Learn more

10-Day Weather Forecast

Advertisements
Track Severe Weather on mobile